Time;durP1;ratioP1;P1;durP2;ratioP2;P2;SDS_P1;SDS_P2;PMS_P1;PMS_P2;Temp;Humidity;BMP_temperature;BMP_pressure;BME280_temperature;BME280_humidity;BME280_pressure;Samples;Min_cycle;Max_cycle;Signal;HPM_P1;HPM_P2
2023/03/23 00:09:06;;;;;;;3.17;1.20;;;;;;;13.64;77.84;99576.88;20553661;28;20046;-79
2023/03/23 00:19:06;;;;;;;1.88;0.90;;;;;;;13.59;77.47;99569.19;20549426;28;20531;-75
2023/03/23 00:29:06;;;;;;;2.33;1.00;;;;;;;13.53;77.35;99565.03;20570412;28;20053;-75
2023/03/23 00:39:07;;;;;;;2.78;0.98;;;;;;;13.64;75.45;99550.59;20623766;22;20030;-75
2023/03/23 00:49:09;;;;;;;2.60;1.10;;;;;;;13.67;74.98;99555.72;20865168;28;20084;-75
2023/03/23 00:59:09;;;;;;;2.92;1.10;;;;;;;13.83;73.65;99560.25;20885090;28;20580;-73
2023/03/23 01:09:09;;;;;;;3.22;1.27;;;;;;;13.91;72.67;99546.78;20881738;28;20092;-73
2023/03/23 01:19:10;;;;;;;2.85;1.10;;;;;;;14.00;71.32;99543.78;20884555;28;20044;-72
2023/03/23 01:29:10;;;;;;;2.65;1.10;;;;;;;13.96;71.97;99518.50;20882371;28;20119;-72
2023/03/23 01:39:10;;;;;;;3.78;1.23;;;;;;;13.97;73.25;99529.88;20880350;28;20132;-73
2023/03/23 01:49:11;;;;;;;5.50;1.85;;;;;;;13.96;73.14;99518.50;20880652;28;20191;-73
2023/03/23 01:59:11;;;;;;;3.38;1.10;;;;;;;13.77;75.37;99502.66;20881096;28;20501;-73
2023/03/23 02:09:13;;;;;;;4.18;1.40;;;;;;;13.68;76.79;99489.03;20877515;28;20073;-72
2023/03/23 02:19:13;;;;;;;4.30;1.65;;;;;;;13.62;77.40;99491.94;20878270;28;20080;-73
2023/03/23 02:29:13;;;;;;;3.63;1.20;;;;;;;13.73;77.06;99476.53;20877783;28;20088;-74
2023/03/23 02:39:13;;;;;;;4.18;1.33;;;;;;;13.57;79.17;99471.94;20876442;28;20044;-71
2023/03/23 02:49:14;;;;;;;4.18;1.10;;;;;;;13.68;78.63;99468.00;20874259;28;20045;-71
2023/03/23 02:59:14;;;;;;;3.33;1.17;;;;;;;13.52;80.34;99487.06;20875664;28;20076;-71
2023/03/23 03:09:15;;;;;;;5.28;1.25;;;;;;;13.54;80.42;99468.59;20889317;28;20053;-71
2023/03/23 03:19:15;;;;;;;3.85;1.45;;;;;;;13.43;82.04;99463.78;20873994;28;20140;-71
2023/03/23 03:29:17;;;;;;;4.15;1.50;;;;;;;13.51;81.79;99460.81;20873151;28;20049;-71
2023/03/23 03:39:17;;;;;;;3.67;1.73;;;;;;;13.54;81.13;99466.81;20871356;28;20801;-73
2023/03/23 03:49:17;;;;;;;4.22;1.40;;;;;;;13.43;83.03;99462.94;20871998;28;20119;-72
2023/03/23 03:59:17;;;;;;;3.22;1.50;;;;;;;13.39;83.49;99463.97;20871211;28;20433;-71
2023/03/23 04:09:19;;;;;;;2.85;1.38;;;;;;;13.54;82.46;99479.09;20868973;28;20040;-71
2023/03/23 04:19:19;;;;;;;4.07;1.70;;;;;;;13.60;82.10;99494.63;20870672;28;20045;-73
2023/03/23 04:29:19;;;;;;;4.43;1.67;;;;;;;13.76;81.05;99494.84;20869576;28;20136;-71
2023/03/23 04:39:19;;;;;;;5.05;1.70;;;;;;;13.86;80.59;99498.78;20869643;28;20041;-72
2023/03/23 04:49:23;;;;;;;5.22;1.88;;;;;;;13.93;80.25;99523.03;20868987;28;20045;-72
2023/03/23 04:59:27;;;;;;;4.43;2.00;;;;;;;13.88;81.61;99517.97;20868531;28;20049;-71
2023/03/23 05:09:27;;;;;;;4.70;1.45;;;;;;;13.65;89.24;99525.97;20863520;28;20049;-72
2023/03/23 05:19:27;;;;;;;4.47;1.52;;;;;;;13.58;87.74;99521.00;20878849;28;20049;-72
2023/03/23 05:29:29;;;;;;;4.13;1.33;;;;;;;13.52;88.86;99531.78;20880874;28;20056;-72
2023/03/23 05:39:30;;;;;;;3.92;1.63;;;;;;;13.48;91.50;99529.34;20878399;28;20049;-72
2023/03/23 05:49:31;;;;;;;4.25;2.13;;;;;;;13.31;93.60;99535.28;20876890;28;20076;-73
2023/03/23 05:59:31;;;;;;;4.78;2.30;;;;;;;13.26;94.36;99522.31;20880979;28;20088;-73
2023/03/23 06:09:31;;;;;;;3.47;1.55;;;;;;;13.33;90.81;99536.94;20891712;28;20052;-72
2023/03/23 06:19:32;;;;;;;3.45;1.70;;;;;;;13.40;90.84;99548.06;20878930;28;20580;-71
2023/03/23 06:29:32;;;;;;;3.42;1.73;;;;;;;13.58;87.88;99555.19;20875767;28;20091;-72
2023/03/23 06:39:32;;;;;;;6.53;1.60;;;;;;;13.79;84.83;99573.63;20876098;28;20054;-71
2023/03/23 06:49:32;;;;;;;3.45;1.27;;;;;;;13.76;83.13;99597.44;20875454;28;20052;-71
2023/03/23 06:59:33;;;;;;;3.63;1.27;;;;;;;13.80;83.20;99620.09;20874687;28;20077;-71
2023/03/23 07:09:33;;;;;;;3.33;1.13;;;;;;;13.86;86.25;99627.72;20889263;28;20041;-71
2023/03/23 07:19:33;;;;;;;3.13;0.88;;;;;;;13.94;89.55;99625.63;20873944;28;20057;-71
2023/03/23 07:29:35;;;;;;;3.40;1.20;;;;;;;14.00;90.33;99628.00;20869876;28;20044;-71
2023/03/23 07:39:35;;;;;;;11.05;4.10;;;;;;;14.12;89.31;99627.47;20862835;28;20116;-71
2023/03/23 07:49:37;;;;;;;3.90;1.48;;;;;;;14.29;87.85;99639.06;20868497;28;20565;-71
2023/03/23 07:59:37;;;;;;;3.08;1.27;;;;;;;14.46;85.98;99657.59;20855973;28;20052;-71
2023/03/23 08:09:38;;;;;;;2.42;1.10;;;;;;;14.45;86.24;99662.94;20870431;28;20098;-69
2023/03/23 08:19:38;;;;;;;5.38;1.30;;;;;;;14.69;85.20;99668.94;20856555;28;20057;-71
2023/03/23 08:29:38;;;;;;;3.20;1.33;;;;;;;15.14;83.60;99672.16;20868946;28;20156;-71
2023/03/23 08:39:38;;;;;;;3.20;1.10;;;;;;;15.87;80.11;99675.75;20868414;28;20110;-71
2023/03/23 08:49:39;;;;;;;4.88;1.70;;;;;;;15.25;82.28;99689.25;20867200;28;20060;-71
2023/03/23 08:59:39;;;;;;;2.80;1.27;;;;;;;15.12;88.45;99726.72;20885004;28;20055;-71
2023/03/23 09:09:39;;;;;;;5.75;1.40;;;;;;;14.84;98.06;99720.97;20896761;28;20076;-69
2023/03/23 09:19:39;;;;;;;4.72;1.50;;;;;;;15.11;97.27;99745.28;20877150;28;20413;-68
2023/03/23 09:29:40;;;;;;;2.72;1.20;;;;;;;14.94;94.60;99748.63;20880588;28;20632;-71
2023/03/23 09:39:40;;;;;;;6.00;1.38;;;;;;;15.13;94.25;99753.94;20879580;28;20259;-71
2023/03/23 09:49:41;;;;;;;3.05;1.30;;;;;;;15.31;93.14;99741.72;20879876;28;20060;-71
2023/03/23 09:59:41;;;;;;;2.63;1.27;;;;;;;15.54;93.02;99744.16;20878086;28;20052;-71
2023/03/23 10:09:41;;;;;;;2.58;1.17;;;;;;;15.16;97.18;99758.25;20876580;28;20421;-71
2023/03/23 10:19:41;;;;;;;4.28;1.33;;;;;;;14.95;100.00;99766.19;20878092;28;20048;-69
2023/03/23 10:29:43;;;;;;;6.32;1.45;;;;;;;14.87;100.00;99769.16;20877500;28;20449;-71
2023/03/23 10:39:43;;;;;;;3.25;1.45;;;;;;;14.78;100.00;99774.81;20875445;28;20041;-71
2023/03/23 10:49:43;;;;;;;2.85;1.40;;;;;;;14.40;100.00;99783.44;20875800;28;20053;-71
2023/03/23 10:59:44;;;;;;;5.72;1.70;;;;;;;14.55;100.00;99783.69;20873477;28;20678;-71
2023/03/23 11:09:45;;;;;;;3.35;1.30;;;;;;;14.48;100.00;99787.50;20872327;28;20061;-71
2023/03/23 11:19:45;;;;;;;3.13;1.30;;;;;;;14.63;100.00;99778.97;20873387;28;20060;-71
2023/03/23 11:29:45;;;;;;;4.50;1.63;;;;;;;14.73;100.00;99762.75;20871550;28;20307;-71
2023/03/23 11:39:46;;;;;;;4.10;1.85;;;;;;;15.15;100.00;99765.31;20871074;28;20076;-71
2023/03/23 11:49:46;;;;;;;4.25;1.65;;;;;;;15.08;100.00;99756.78;20869393;28;20053;-71
2023/03/23 11:59:48;;;;;;;5.05;1.60;;;;;;;15.22;97.61;99755.31;20869971;28;20398;-71
2023/03/23 12:09:48;;;;;;;3.55;1.40;;;;;;;15.27;96.78;99727.81;20885155;28;20041;-71
2023/03/23 12:19:49;;;;;;;3.30;1.13;;;;;;;14.91;98.00;99740.88;20868371;28;20045;-71
2023/03/23 12:29:49;;;;;;;4.78;1.60;;;;;;;14.76;97.47;99739.78;20881823;28;20457;-71
2023/03/23 12:39:50;;;;;;;3.17;1.13;;;;;;;15.00;93.73;99715.91;20884106;28;20049;-71
2023/03/23 12:49:50;;;;;;;4.80;1.35;;;;;;;15.07;91.47;99712.91;20881847;28;20807;-71
2023/03/23 12:59:50;;;;;;;3.78;1.33;;;;;;;14.75;92.29;99702.94;20883196;28;20056;-69
2023/03/23 13:09:51;;;;;;;3.90;1.30;;;;;;;14.80;86.83;99703.56;20879742;28;20048;-69
2023/03/23 13:19:51;;;;;;;4.07;1.30;;;;;;;15.26;85.78;99675.16;20879541;28;20045;-69
2023/03/23 13:29:51;;;;;;;4.03;1.73;;;;;;;15.92;81.59;99646.47;20878587;28;20071;-69
2023/03/23 13:39:53;;;;;;;3.55;1.20;;;;;;;15.84;81.94;99646.00;20877700;28;20075;-69
2023/03/23 13:49:53;;;;;;;3.00;1.40;;;;;;;16.22;81.78;99635.31;20879344;28;20567;-73
2023/03/23 13:59:53;;;;;;;3.28;1.48;;;;;;;15.82;82.57;99639.94;20878180;28;20056;-73
2023/03/23 14:09:54;;;;;;;4.07;1.25;;;;;;;15.57;85.20;99640.25;20877194;28;20114;-73
2023/03/23 14:19:55;;;;;;;3.90;1.50;;;;;;;15.72;86.90;99630.78;20876544;28;20052;-73
2023/03/23 14:29:55;;;;;;;4.65;1.70;;;;;;;15.60;88.87;99622.47;20876376;28;20232;-73
2023/03/23 14:39:56;;;;;;;4.47;2.00;;;;;;;15.37;89.02;99617.47;20875301;28;20503;-73
2023/03/23 14:49:57;;;;;;;4.38;1.65;;;;;;;15.39;91.62;99623.53;20874554;28;20532;-73
2023/03/23 14:59:57;;;;;;;3.30;1.50;;;;;;;15.32;90.90;99627.38;20873532;28;20398;-73
2023/03/23 15:09:58;;;;;;;3.33;1.60;;;;;;;15.35;94.35;99632.50;20889337;28;20165;-73
2023/03/23 15:19:58;;;;;;;4.65;1.60;;;;;;;15.32;95.90;99624.75;20867996;28;20394;-72
2023/03/23 15:29:58;;;;;;;4.13;1.60;;;;;;;15.30;93.69;99623.97;20858080;28;20413;-73
2023/03/23 15:39:58;;;;;;;4.07;1.92;;;;;;;15.28;99.33;99620.53;20866815;28;20076;-73
2023/03/23 15:49:59;;;;;;;5.57;2.80;;;;;;;15.31;97.51;99615.13;20865388;28;20059;-73
2023/03/23 16:00:01;;;;;;;4.85;2.10;;;;;;;15.20;100.00;99593.69;20867574;28;20041;-74
2023/03/23 16:10:03;;;;;;;4.97;1.80;;;;;;;15.08;100.00;99598.59;20886654;28;20044;-70
2023/03/23 16:20:06;;;;;;;4.97;2.40;;;;;;;15.12;100.00;99589.63;20885805;28;20365;-71
2023/03/23 16:30:07;;;;;;;3.72;1.77;;;;;;;15.19;100.00;99576.13;20885261;28;20049;-71
2023/03/23 16:40:08;;;;;;;4.07;1.67;;;;;;;15.26;100.00;99562.59;20885825;28;20045;-72
2023/03/23 16:50:10;;;;;;;5.68;2.67;;;;;;;15.24;100.00;99550.44;20887226;28;20080;-72
2023/03/23 17:00:13;;;;;;;5.72;2.90;;;;;;;15.20;100.00;99544.44;20885750;28;20114;-71
2023/03/23 17:10:15;;;;;;;7.55;3.95;;;;;;;14.94;100.00;99540.41;20880458;28;20057;-72
2023/03/23 17:20:16;;;;;;;7.13;3.80;;;;;;;14.78;100.00;99542.91;20898367;28;20052;-71
2023/03/23 17:30:18;;;;;;;4.22;1.80;;;;;;;14.69;100.00;99542.47;20897395;28;20049;-72
2023/03/23 17:40:19;;;;;;;4.88;2.60;;;;;;;14.59;100.00;99542.91;20896485;28;20081;-72
2023/03/23 17:50:20;;;;;;;6.38;2.85;;;;;;;14.45;100.00;99534.75;20896067;28;20413;-71
2023/03/23 18:00:21;;;;;;;7.60;3.03;;;;;;;14.39;100.00;99545.56;20892375;28;20122;-71
2023/03/23 18:10:23;;;;;;;13.85;6.05;;;;;;;14.31;100.00;99548.53;20893760;28;20040;-71
2023/03/23 18:20:24;;;;;;;41.55;15.10;;;;;;;14.18;100.00;99546.50;20890863;28;20049;-70
2023/03/23 18:30:26;;;;;;;9.18;4.20;;;;;;;13.99;100.00;99538.53;20892258;28;20048;-72
2023/03/23 18:40:28;;;;;;;17.20;7.75;;;;;;;13.95;100.00;99547.53;20908957;23;20099;-69
2023/03/23 18:50:29;;;;;;;10.32;4.00;;;;;;;13.74;100.00;99538.75;20844295;28;20128;-72
2023/03/23 19:00:32;;;;;;;31.13;14.45;;;;;;;13.72;100.00;99553.75;20837918;28;20995;-71
2023/03/23 19:10:33;;;;;;;28.00;14.25;;;;;;;13.70;100.00;99555.59;20845370;28;20414;-70
2023/03/23 19:20:35;;;;;;;18.08;10.73;;;;;;;13.65;100.00;99552.28;20841708;28;20119;-71
2023/03/23 19:30:39;;;;;;;25.80;13.50;;;;;;;13.64;100.00;99546.19;20841020;28;20037;-71
2023/03/23 19:40:40;;;;;;;10.60;5.93;;;;;;;13.60;100.00;99539.31;20844749;28;20060;-71
2023/03/23 19:50:43;;;;;;;14.65;7.63;;;;;;;13.54;100.00;99535.19;20824613;28;20049;-68
2023/03/23 20:00:44;;;;;;;27.23;13.18;;;;;;;13.54;100.00;99529.94;20816724;28;20053;-70
2023/03/23 20:10:46;;;;;;;19.42;11.73;;;;;;;13.50;100.00;99517.81;20806336;28;20060;-68
2023/03/23 20:20:47;;;;;;;18.20;10.93;;;;;;;13.46;100.00;99510.13;20816337;28;20044;-69
2023/03/23 20:30:52;;;;;;;13.35;6.70;;;;;;;13.44;100.00;99507.56;20816257;28;20059;-68
2023/03/23 20:41:14;;;;;;;8.75;5.82;;;;;;;13.38;100.00;99502.56;20810459;28;20048;-68
2023/03/23 20:51:16;;;;;;;12.32;7.63;;;;;;;13.31;100.00;99498.47;20821909;28;20098;-67
2023/03/23 21:01:17;;;;;;;11.45;5.50;;;;;;;13.35;100.00;99489.53;20831450;28;20049;-68
2023/03/23 21:11:18;;;;;;;8.18;2.97;;;;;;;13.63;100.00;99485.75;20836884;28;20159;-68
2023/03/23 21:21:20;;;;;;;6.30;3.33;;;;;;;13.67;100.00;99476.81;20853226;28;20456;-68
2023/03/23 21:31:25;;;;;;;5.72;3.17;;;;;;;13.62;100.00;99466.50;20852548;28;20045;-68
2023/03/23 21:41:28;;;;;;;5.55;3.10;;;;;;;13.56;100.00;99443.94;20850146;28;20172;-69
2023/03/23 21:51:42;;;;;;;7.57;3.40;;;;;;;13.48;100.00;99439.94;20853910;28;20049;-70
2023/03/23 22:01:43;;;;;;;7.53;3.63;;;;;;;13.48;100.00;99424.16;20852287;28;20052;-70
2023/03/23 22:11:45;;;;;;;8.55;4.78;;;;;;;13.44;100.00;99415.53;20850454;28;20416;-70
2023/03/23 22:21:46;;;;;;;7.50;3.45;;;;;;;13.27;100.00;99405.75;20849317;28;20478;-70
2023/03/23 22:31:48;;;;;;;8.40;3.72;;;;;;;13.09;100.00;99406.50;20852478;28;20045;-70
2023/03/23 22:41:49;;;;;;;5.32;2.38;;;;;;;13.06;100.00;99410.09;20853308;28;20151;-70
2023/03/23 22:51:50;;;;;;;6.82;3.40;;;;;;;13.03;100.00;99406.72;20851122;28;20897;-70
2023/03/23 23:01:51;;;;;;;6.70;3.28;;;;;;;12.98;100.00;99393.81;20842838;28;20618;-69
2023/03/23 23:11:53;;;;;;;7.60;3.05;;;;;;;12.90;100.00;99374.03;20852275;28;20049;-69
2023/03/23 23:21:54;;;;;;;8.05;4.40;;;;;;;12.80;100.00;99374.41;20852669;28;20448;-70
2023/03/23 23:31:58;;;;;;;11.68;5.53;;;;;;;12.75;100.00;99371.09;20851838;28;20053;-70
2023/03/23 23:41:59;;;;;;;11.45;6.63;;;;;;;12.72;100.00;99344.09;20845340;28;20049;-70
2023/03/23 23:52:01;;;;;;;11.65;5.22;;;;;;;12.61;100.00;99346.31;20844133;28;20056;-69
